Terminal Aerodrome Forecast
Issued by NWS Cleveland, OH

Home | Current Version | Previous Version | Text Only | Print | Product List | Glossary On
Versions: 1 2 3 4 5 6 7 8 9 10 11 12 13 14 15 16 17 18 19 20 21 22 23 24 25 26 27
000
FTUS41 KCLE 151100
TAFTOL
TAF
KTOL 151123Z 1512/1612 32011G18KT P6SM BKN020 OVC060
      TEMPO 1512/1516 6SM -SHSN SCT020 BKN060
     FM151600 31015G25KT P6SM SCT025 BKN050
      TEMPO 1516/1520 BKN025
     FM152000 31018G28KT P6SM SCT035 BKN060
     FM160000 31011KT P6SM SCT250
     FM160300 30003KT P6SM SKC=

USA.gov is the U.S. government's official web portal to all federal, state and local government web resources and services.